Time;durP1;ratioP1;P1;durP2;ratioP2;P2;SDS_P1;SDS_P2;PMS_P1;PMS_P2;Temp;Humidity;BMP_temperature;BMP_pressure;BME280_temperature;BME280_humidity;BME280_pressure;Samples;Min_cycle;Max_cycle;Signal;HPM_P1;HPM_P2
2023/05/17 00:00:08;;;;;;;6.33;4.03;;;8.10;1.00;;;;;;5101149;28;20499;-62
2023/05/17 00:02:35;;;;;;;5.10;4.00;;;7.90;1.00;;;;;;5100150;28;20538;-62
2023/05/17 00:05:03;;;;;;;5.73;4.10;;;7.90;1.00;;;;;;5098982;28;20447;-62
2023/05/17 00:07:33;;;;;;;6.10;4.20;;;7.80;1.00;;;;;;5101266;28;20436;-62
2023/05/17 00:10:02;;;;;;;6.20;3.90;;;7.80;1.00;;;;;;5083345;28;20874;-62
2023/05/17 00:12:29;;;;;;;5.37;3.97;;;7.80;2.90;;;;;;5081069;28;20512;-62
2023/05/17 00:14:56;;;;;;;6.03;4.90;;;7.60;79.10;;;;;;5080257;28;20468;-62
2023/05/17 00:17:23;;;;;;;6.60;3.90;;;7.70;99.90;;;;;;5080369;28;20468;-62
2023/05/17 00:19:50;;;;;;;5.37;3.80;;;7.70;99.90;;;;;;5085940;28;20492;-62
2023/05/17 00:22:18;;;;;;;5.33;3.77;;;7.60;74.60;;;;;;5100857;28;20551;-62
2023/05/17 00:24:45;;;;;;;5.93;3.30;;;7.60;22.40;;;;;;5099755;28;20911;-62
2023/05/17 00:27:13;;;;;;;5.97;4.57;;;7.50;42.00;;;;;;5100666;28;20472;-62
2023/05/17 00:29:40;;;;;;;5.90;3.90;;;7.50;58.30;;;;;;5100924;28;20827;-62
2023/05/17 00:32:11;;;;;;;6.83;4.23;;;7.50;99.90;;;;;;5100746;28;20880;-62
2023/05/17 00:34:38;;;;;;;6.53;4.13;;;7.40;99.90;;;;;;5100403;28;20529;-62
2023/05/17 00:37:05;;;;;;;9.60;4.33;;;7.30;1.00;;;;;;5100200;28;20460;-62
2023/05/17 00:39:33;;;;;;;11.10;4.60;;;7.20;1.00;;;;;;5099881;28;20494;-62
2023/05/17 00:42:01;;;;;;;7.43;4.30;;;7.20;1.00;;;;;;5100491;28;20519;-62
2023/05/17 00:44:30;;;;;;;7.63;4.80;;;7.20;99.90;;;;;;5100778;28;20760;-62
2023/05/17 00:46:58;;;;;;;6.50;4.53;;;7.20;99.90;;;;;;5100495;28;20512;-62
2023/05/17 00:49:26;;;;;;;8.80;4.00;;;7.10;99.90;;;;;;5100040;28;20460;-62
2023/05/17 00:51:54;;;;;;;6.53;3.90;;;7.10;99.90;;;;;;5100285;28;20924;-62
2023/05/17 00:54:22;;;;;;;9.03;4.07;;;7.10;99.90;;;;;;5100181;28;20893;-62
2023/05/17 00:56:49;;;;;;;5.73;3.80;;;7.10;99.90;;;;;;5099960;28;20492;-62
2023/05/17 00:59:18;;;;;;;6.53;4.40;;;7.10;1.00;;;;;;5099665;28;20463;-62
2023/05/17 01:01:47;;;;;;;9.27;4.50;;;7.00;99.90;;;;;;5099683;28;20469;-62
2023/05/17 01:04:14;;;;;;;8.33;4.40;;;7.00;99.90;;;;;;5099882;28;20439;-62
2023/05/17 01:06:42;;;;;;;5.00;4.37;;;7.00;72.40;;;;;;5099724;28;20472;-62
2023/05/17 01:09:10;;;;;;;4.70;4.13;;;6.90;1.00;;;;;;5099907;28;20467;-62
2023/05/17 01:11:48;;;;;;;8.37;4.90;;;6.90;99.90;;;;;;5099739;28;20464;-62
2023/05/17 01:14:30;;;;;;;7.10;4.00;;;6.90;99.90;;;;;;5099514;28;20711;-62
2023/05/17 01:17:04;;;;;;;8.10;4.30;;;6.90;99.90;;;;;;5099630;28;20828;-62
2023/05/17 01:19:58;;;;;;;8.00;4.80;;;7.00;1.00;;;;;;5099278;28;20800;-62
2023/05/17 01:22:43;;;;;;;8.30;4.90;;;7.00;1.00;;;;;;5097570;28;20468;-62
2023/05/17 01:25:36;;;;;;;7.30;5.13;;;7.10;20.70;;;;;;5098653;28;20423;-62
2023/05/17 01:28:05;;;;;;;7.57;4.80;;;7.10;99.90;;;;;;5080770;28;20485;-62
2023/05/17 01:30:33;;;;;;;9.00;5.00;;;7.00;99.90;;;;;;5099571;28;20455;-62
2023/05/17 01:33:02;;;;;;;8.03;4.50;;;7.00;1.00;;;;;;5099273;28;20431;-62
2023/05/17 01:35:29;;;;;;;8.60;5.03;;;6.90;1.00;;;;;;5099240;28;20964;-62
2023/05/17 01:37:56;;;;;;;7.20;4.63;;;6.90;1.00;;;;;;5099136;28;20750;-62
2023/05/17 01:40:24;;;;;;;9.43;5.07;;;6.90;1.00;;;;;;5099121;28;20492;-62
2023/05/17 01:42:58;;;;;;;11.63;5.03;;;7.00;99.90;;;;;;5098357;28;20563;-62
2023/05/17 01:45:32;;;;;;;7.63;5.13;;;6.90;99.90;;;;;;5098894;28;20546;-62
2023/05/17 01:48:08;;;;;;;11.77;5.50;;;6.90;1.00;;;;;;5099508;28;20474;-62
2023/05/17 01:50:38;;;;;;;11.43;6.37;;;7.00;17.40;;;;;;5098890;28;20470;-62
2023/05/17 01:53:10;;;;;;;8.17;5.60;;;6.90;7.60;;;;;;5098820;28;20464;-62
2023/05/17 01:55:44;;;;;;;7.67;5.33;;;6.90;99.90;;;;;;5098985;28;20821;-62
2023/05/17 01:58:13;;;;;;;10.47;5.70;;;6.90;1.00;;;;;;5098937;28;20566;-62
2023/05/17 02:00:43;;;;;;;9.43;5.70;;;6.80;1.00;;;;;;5098899;28;20583;-62
2023/05/17 02:03:17;;;;;;;8.60;5.57;;;6.80;99.90;;;;;;5098237;28;20518;-62
2023/05/17 02:05:44;;;;;;;10.90;5.20;;;6.80;99.90;;;;;;5098364;28;20464;-62
2023/05/17 02:08:11;;;;;;;7.73;5.40;;;6.70;1.00;;;;;;5098572;28;20755;-62
2023/05/17 02:10:38;;;;;;;9.40;5.93;;;6.70;1.00;;;;;;5098326;28;20925;-62
2023/05/17 02:13:06;;;;;;;8.90;6.27;;;6.70;99.90;;;;;;5098948;28;20807;-62
2023/05/17 02:15:33;;;;;;;9.93;5.83;;;6.70;99.90;;;;;;5098086;28;20773;-62
2023/05/17 02:18:02;;;;;;;7.90;6.00;;;6.80;99.90;;;;;;5098578;28;20468;-62
2023/05/17 02:20:29;;;;;;;9.73;6.00;;;6.70;99.90;;;;;;5098562;28;20819;-62
2023/05/17 02:22:56;;;;;;;8.27;5.70;;;6.60;1.00;;;;;;5097949;28;20490;-62
2023/05/17 02:25:23;;;;;;;9.20;5.70;;;6.60;1.00;;;;;;5097315;28;20446;-62
2023/05/17 02:27:50;;;;;;;9.30;5.60;;;6.60;99.90;;;;;;5096806;28;20964;-62
2023/05/17 02:30:20;;;;;;;10.27;5.57;;;6.50;1.00;;;;;;5096658;28;20456;-62
2023/05/17 02:32:48;;;;;;;9.60;5.90;;;6.50;99.90;;;;;;5096251;28;20456;-62
2023/05/17 02:35:16;;;;;;;10.03;6.10;;;6.50;1.00;;;;;;5096778;28;20498;-62
2023/05/17 02:37:44;;;;;;;10.57;6.20;;;6.40;33.70;;;;;;5096478;28;20745;-62
2023/05/17 02:40:11;;;;;;;6.10;5.40;;;6.30;1.00;;;;;;5096829;28;20920;-63
2023/05/17 02:42:39;;;;;;;14.00;7.27;;;6.30;1.00;;;;;;5097637;28;20464;-62
2023/05/17 02:45:07;;;;;;;11.77;6.37;;;6.30;1.00;;;;;;5098241;28;20460;-62
2023/05/17 02:47:34;;;;;;;13.90;7.00;;;6.30;99.90;;;;;;5098178;28;20460;-62
2023/05/17 02:50:01;;;;;;;11.70;6.50;;;6.30;40.80;;;;;;5098013;28;20535;-62
2023/05/17 02:52:30;;;;;;;13.33;7.10;;;6.30;99.90;;;;;;5098076;28;20496;-63
2023/05/17 02:54:57;;;;;;;13.33;7.40;;;6.20;1.00;;;;;;5097773;28;20498;-62
2023/05/17 02:57:24;;;;;;;13.60;6.70;;;6.30;1.00;;;;;;5097831;28;20932;-62
2023/05/17 02:59:51;;;;;;;10.80;7.23;;;6.20;99.90;;;;;;5097744;28;20511;-62
2023/05/17 03:02:19;;;;;;;14.67;7.33;;;6.20;1.00;;;;;;5097807;28;20506;-62
2023/05/17 03:04:46;;;;;;;15.63;7.73;;;6.20;1.00;;;;;;5097306;28;20461;-62
2023/05/17 03:07:13;;;;;;;9.97;7.80;;;6.20;1.00;;;;;;5097027;28;20439;-62
2023/05/17 03:09:42;;;;;;;15.73;7.63;;;6.20;4.80;;;;;;5097921;28;20766;-62
2023/05/17 03:12:10;;;;;;;16.17;7.50;;;6.20;99.90;;;;;;5096939;28;20488;-63
2023/05/17 03:14:37;;;;;;;12.13;7.00;;;6.20;99.90;;;;;;5097083;28;20468;-62
2023/05/17 03:17:04;;;;;;;12.30;7.70;;;6.30;99.90;;;;;;5097349;28;20719;-62
2023/05/17 03:19:31;;;;;;;9.43;7.20;;;6.30;99.90;;;;;;5096386;28;20470;-62
2023/05/17 03:21:58;;;;;;;18.03;8.07;;;6.40;99.90;;;;;;5097824;28;20475;-62
2023/05/17 03:24:25;;;;;;;13.70;8.20;;;6.40;99.90;;;;;;5097555;28;20726;-62
2023/05/17 03:26:54;;;;;;;16.03;8.03;;;6.40;99.90;;;;;;5096791;28;20430;-62
2023/05/17 03:29:21;;;;;;;14.93;8.70;;;6.50;99.90;;;;;;5097213;28;20795;-63
2023/05/17 03:31:49;;;;;;;13.97;8.67;;;6.60;99.90;;;;;;5097461;28;20471;-63
2023/05/17 03:34:16;;;;;;;16.33;11.33;;;6.70;99.90;;;;;;5097170;28;20464;-63
2023/05/17 03:36:43;;;;;;;14.13;10.10;;;6.80;99.90;;;;;;5097358;28;20748;-63
2023/05/17 03:39:10;;;;;;;19.23;11.30;;;7.00;99.90;;;;;;5097050;28;20806;-63
2023/05/17 03:41:38;;;;;;;15.13;11.30;;;7.10;99.90;;;;;;5097211;28;20511;-63
2023/05/17 03:44:06;;;;;;;15.73;10.17;;;7.20;99.90;;;;;;5097448;28;20751;-63
2023/05/17 03:46:33;;;;;;;17.00;12.30;;;7.30;99.90;;;;;;5097347;28;20434;-63
2023/05/17 03:49:00;;;;;;;24.00;12.60;;;7.40;99.90;;;;;;5096917;28;20567;-63
2023/05/17 03:51:28;;;;;;;29.33;15.60;;;7.40;99.90;;;;;;5097276;28;20551;-63
2023/05/17 03:53:59;;;;;;;26.47;17.80;;;7.50;99.90;;;;;;5097260;28;20765;-63
2023/05/17 03:56:26;;;;;;;26.83;17.00;;;7.60;99.90;;;;;;5097006;28;20441;-63
2023/05/17 03:58:53;;;;;;;31.57;16.87;;;7.60;99.90;;;;;;5096737;28;20439;-63
2023/05/17 04:01:22;;;;;;;30.93;18.87;;;7.60;99.90;;;;;;5096904;28;20761;-63
2023/05/17 04:03:49;;;;;;;29.77;17.70;;;7.60;99.90;;;;;;5097148;28;20463;-63
2023/05/17 04:06:16;;;;;;;29.60;18.77;;;7.70;99.90;;;;;;5097403;28;20874;-63
2023/05/17 04:08:43;;;;;;;37.97;18.70;;;7.70;99.90;;;;;;5096590;28;20472;-63
2023/05/17 04:11:12;;;;;;;33.30;19.60;;;7.70;99.90;;;;;;5095900;28;20516;-63
2023/05/17 04:13:40;;;;;;;38.07;19.30;;;7.70;99.90;;;;;;5096464;28;20471;-63
2023/05/17 04:16:08;;;;;;;33.93;20.63;;;7.80;99.90;;;;;;5097086;28;20563;-63
2023/05/17 04:18:37;;;;;;;34.97;21.97;;;7.80;99.90;;;;;;5096753;28;20464;-63
2023/05/17 04:21:05;;;;;;;33.13;20.67;;;7.80;99.90;;;;;;5096154;28;20480;-63
2023/05/17 04:23:34;;;;;;;32.90;20.33;;;7.90;99.90;;;;;;5096374;28;20890;-63
2023/05/17 04:26:02;;;;;;;27.27;20.10;;;8.00;99.90;;;;;;5094966;28;20811;-63
2023/05/17 04:28:29;;;;;;;28.40;19.60;;;8.00;99.90;;;;;;5095826;28;20464;-63
2023/05/17 04:30:56;;;;;;;34.93;21.63;;;8.00;99.90;;;;;;5097630;28;20456;-63
2023/05/17 04:33:24;;;;;;;28.73;21.20;;;8.00;99.90;;;;;;5099585;28;20948;-64
2023/05/17 04:35:55;;;;;;;33.53;22.10;;;8.00;99.90;;;;;;5100084;28;20467;-64
2023/05/17 04:38:23;;;;;;;28.30;20.73;;;8.10;99.90;;;;;;5100751;28;20874;-61
2023/05/17 04:40:50;;;;;;;30.17;21.13;;;8.10;99.90;;;;;;5100397;28;20776;-61
2023/05/17 04:43:18;;;;;;;30.70;20.40;;;8.10;99.90;;;;;;5100156;28;20484;-61
2023/05/17 04:45:45;;;;;;;28.47;21.67;;;8.10;99.90;;;;;;5100445;28;20481;-61
2023/05/17 04:48:12;;;;;;;28.40;21.00;;;8.10;99.90;;;;;;5099644;28;20452;-59
2023/05/17 04:50:39;;;;;;;34.07;21.70;;;8.10;99.90;;;;;;5098901;28;20901;-59
2023/05/17 04:53:08;;;;;;;34.23;20.53;;;8.10;99.90;;;;;;5098670;28;20502;-61
2023/05/17 04:55:35;;;;;;;26.20;21.23;;;8.30;99.90;;;;;;5098316;28;20439;-61
2023/05/17 04:58:02;;;;;;;36.50;23.30;;;8.40;99.90;;;;;;5098812;28;20549;-62
2023/05/17 05:00:29;;;;;;;31.23;21.60;;;8.40;99.90;;;;;;5098945;28;20578;-61
2023/05/17 05:02:57;;;;;;;31.03;22.30;;;8.40;99.90;;;;;;5099373;28;20939;-62
2023/05/17 05:05:24;;;;;;;33.30;22.70;;;8.30;99.90;;;;;;5095092;28;20479;-62
2023/05/17 05:07:51;;;;;;;31.37;23.50;;;8.30;99.90;;;;;;5079004;28;20550;-62
2023/05/17 05:10:20;;;;;;;29.90;22.60;;;8.20;99.90;;;;;;5078778;28;20467;-62
2023/05/17 05:12:48;;;;;;;39.90;22.40;;;8.10;99.90;;;;;;5077824;28;20489;-62
2023/05/17 05:15:16;;;;;;;34.27;24.47;;;8.20;99.90;;;;;;5077474;28;20887;-62
2023/05/17 05:17:43;;;;;;;33.03;25.00;;;8.20;99.90;;;;;;5096426;28;20931;-62
2023/05/17 05:20:11;;;;;;;36.70;25.70;;;8.30;99.90;;;;;;5095816;28;20823;-62
2023/05/17 05:22:38;;;;;;;35.27;24.57;;;8.50;99.90;;;;;;5094710;28;20467;-63
2023/05/17 05:25:06;;;;;;;34.40;23.63;;;8.50;99.90;;;;;;5097824;28;20830;-63
2023/05/17 05:27:35;;;;;;;35.60;23.23;;;8.60;99.90;;;;;;5098501;28;20643;-63
2023/05/17 05:30:02;;;;;;;28.60;18.97;;;8.70;99.90;;;;;;5098952;28;20468;-63
2023/05/17 05:32:30;;;;;;;33.70;20.00;;;8.70;99.90;;;;;;5099339;28;20435;-64
2023/05/17 05:34:57;;;;;;;30.97;18.40;;;8.60;99.90;;;;;;5099244;28;20539;-63
2023/05/17 05:37:24;;;;;;;24.37;15.63;;;8.50;1.00;;;;;;5099041;28;20460;-63
2023/05/17 05:39:51;;;;;;;24.90;16.67;;;8.60;99.90;;;;;;5097710;28;20460;-63
2023/05/17 05:42:21;;;;;;;24.13;16.43;;;8.80;1.00;;;;;;5097253;28;20518;-64
2023/05/17 05:44:50;;;;;;;18.27;14.07;;;9.00;1.00;;;;;;5098122;28;20849;-63
2023/05/17 05:47:17;;;;;;;25.40;16.00;;;8.90;1.00;;;;;;5098645;28;20457;-63
2023/05/17 05:49:44;;;;;;;26.10;16.90;;;8.90;1.00;;;;;;5092927;28;20465;-63
2023/05/17 05:52:11;;;;;;;19.27;15.47;;;8.90;25.90;;;;;;5078846;28;20757;-64
2023/05/17 05:54:39;;;;;;;19.70;12.97;;;9.10;1.00;;;;;;5078192;28;20762;-63
2023/05/17 05:57:06;;;;;;;15.60;12.73;;;8.90;1.00;;;;;;5078729;28;20773;-63
2023/05/17 05:59:33;;;;;;;25.23;11.93;;;9.00;1.00;;;;;;5078934;28;20474;-63
2023/05/17 06:02:01;;;;;;;14.87;11.20;;;9.20;1.00;;;;;;5090054;28;20499;-63
2023/05/17 06:04:29;;;;;;;18.20;10.80;;;9.40;1.00;;;;;;5098724;28;20491;-63
2023/05/17 06:06:56;;;;;;;21.33;9.07;;;9.40;1.00;;;;;;5097825;28;20460;-64
2023/05/17 06:09:23;;;;;;;19.47;10.47;;;9.50;1.00;;;;;;5098607;28;20554;-63
2023/05/17 06:11:52;;;;;;;17.40;8.53;;;9.50;1.00;;;;;;5098725;28;20563;-64
2023/05/17 06:14:19;;;;;;;12.57;8.77;;;9.50;99.90;;;;;;5098563;28;20470;-63
2023/05/17 06:16:47;;;;;;;13.93;7.10;;;9.70;99.90;;;;;;5097367;28;20552;-64
2023/05/17 06:19:16;;;;;;;9.87;7.30;;;9.80;99.90;;;;;;5098625;28;20460;-64
2023/05/17 06:21:44;;;;;;;19.03;7.40;;;9.70;99.90;;;;;;5098431;28;20467;-64
2023/05/17 06:24:11;;;;;;;10.90;7.93;;;10.00;99.90;;;;;;5098772;28;20467;-64
2023/05/17 06:26:39;;;;;;;15.40;6.40;;;10.10;99.90;;;;;;5098021;28;20517;-64
2023/05/17 06:29:06;;;;;;;8.40;5.60;;;10.20;99.90;;;;;;5098428;28;20877;-65
2023/05/17 06:31:34;;;;;;;14.13;6.57;;;10.20;99.90;;;;;;5098201;28;20460;-65
2023/05/17 06:34:01;;;;;;;11.70;6.47;;;9.80;99.90;;;;;;5094246;28;20902;-65
2023/05/17 06:36:29;;;;;;;11.63;5.57;;;10.00;99.90;;;;;;5097298;28;20439;-64
2023/05/17 06:38:56;;;;;;;10.07;5.10;;;10.20;99.90;;;;;;5095205;28;20869;-64
2023/05/17 06:41:24;;;;;;;13.53;6.07;;;10.10;99.90;;;;;;5091118;28;20511;-64
2023/05/17 06:43:51;;;;;;;12.10;5.30;;;10.30;99.90;;;;;;5096695;28;20506;-64
2023/05/17 06:46:18;;;;;;;8.47;4.47;;;11.00;99.90;;;;;;5096900;28;20866;-64
2023/05/17 06:48:45;;;;;;;10.90;5.13;;;11.50;99.90;;;;;;5096185;28;20463;-64
2023/05/17 06:51:12;;;;;;;9.97;5.10;;;11.80;99.90;;;;;;5096437;28;20449;-64
2023/05/17 06:53:41;;;;;;;8.90;4.57;;;12.40;99.90;;;;;;5096013;28;20583;-65
2023/05/17 06:56:08;;;;;;;8.20;3.80;;;11.80;99.90;;;;;;5096623;28;20882;-64
2023/05/17 06:58:35;;;;;;;10.53;4.40;;;11.30;99.90;;;;;;5096043;28;20529;-64
2023/05/17 07:01:02;;;;;;;11.27;4.00;;;11.50;99.90;;;;;;5095780;28;20492;-64
2023/05/17 07:03:29;;;;;;;11.17;4.30;;;11.40;99.90;;;;;;5095858;28;20491;-64
2023/05/17 07:05:56;;;;;;;10.13;4.60;;;11.50;99.90;;;;;;5096506;28;20504;-63
2023/05/17 07:08:24;;;;;;;15.33;4.40;;;11.00;99.90;;;;;;5096112;28;20456;-64
2023/05/17 07:10:53;;;;;;;12.23;4.27;;;10.50;99.90;;;;;;5096954;28;20498;-63
2023/05/17 07:13:20;;;;;;;12.80;4.63;;;10.20;99.90;;;;;;5097166;28;20510;-63
2023/05/17 07:15:47;;;;;;;11.60;3.60;;;10.40;99.90;;;;;;5097920;28;20967;-63
2023/05/17 07:18:15;;;;;;;13.70;5.50;;;10.30;99.90;;;;;;5097919;28;20760;-63
2023/05/17 07:20:42;;;;;;;13.07;4.70;;;10.50;99.90;;;;;;5097180;28;20464;-63
2023/05/17 07:23:09;;;;;;;11.37;4.20;;;10.70;99.90;;;;;;5097476;28;20465;-63
2023/05/17 07:25:39;;;;;;;19.77;4.60;;;10.50;99.90;;;;;;5097593;28;20567;-63
2023/05/17 07:28:10;;;;;;;12.10;3.87;;;10.80;99.90;;;;;;5097561;28;20463;-63
2023/05/17 07:30:37;;;;;;;15.07;4.30;;;11.30;99.90;;;;;;5097406;28;20461;-63
2023/05/17 07:33:04;;;;;;;7.90;3.73;;;11.50;99.90;;;;;;5093775;28;20890;-63
2023/05/17 07:35:31;;;;;;;9.63;3.87;;;11.60;99.90;;;;;;5095701;28;20781;-63
2023/05/17 07:37:58;;;;;;;16.23;4.20;;;11.70;99.90;;;;;;5095983;28;20461;-62
2023/05/17 07:40:25;;;;;;;9.37;3.90;;;12.00;99.90;;;;;;5097417;28;20461;-62
2023/05/17 07:42:52;;;;;;;8.77;3.57;;;12.40;99.90;;;;;;5095911;28;20492;-62
2023/05/17 07:45:21;;;;;;;10.37;3.43;;;12.80;99.90;;;;;;5097362;28;20464;-62
2023/05/17 07:47:48;;;;;;;13.97;3.97;;;13.10;99.90;;;;;;5097469;28;20559;-63
2023/05/17 07:50:16;;;;;;;7.10;3.87;;;13.50;99.90;;;;;;5097286;28;20461;-63
2023/05/17 07:52:43;;;;;;;11.57;4.40;;;12.80;99.90;;;;;;5096883;28;20460;-62
2023/05/17 07:55:10;;;;;;;10.53;3.70;;;12.80;99.90;;;;;;5096059;28;20638;-62
2023/05/17 07:57:37;;;;;;;11.30;3.83;;;13.00;99.90;;;;;;5095379;28;20469;-62
2023/05/17 08:00:07;;;;;;;14.70;4.10;;;12.80;99.90;;;;;;5095455;28;20460;-62
2023/05/17 08:02:36;;;;;;;10.23;4.13;;;12.70;99.90;;;;;;5095014;28;20500;-62
2023/05/17 08:05:03;;;;;;;8.10;3.27;;;13.20;99.90;;;;;;5095544;28;20467;-62
2023/05/17 08:07:30;;;;;;;13.80;3.70;;;13.50;99.90;;;;;;5099434;28;20879;-62
2023/05/17 08:09:57;;;;;;;13.90;4.60;;;13.30;99.90;;;;;;5100248;28;20467;-62
2023/05/17 08:12:25;;;;;;;9.37;4.07;;;13.40;99.90;;;;;;5101440;28;20492;-62
2023/05/17 08:14:52;;;;;;;9.73;4.60;;;13.40;99.90;;;;;;5100746;28;20464;-62
2023/05/17 08:17:19;;;;;;;6.00;3.73;;;13.40;99.90;;;;;;5101065;28;20460;-62
2023/05/17 08:19:48;;;;;;;7.27;4.10;;;13.40;99.90;;;;;;5100936;28;20460;-62
2023/05/17 08:22:15;;;;;;;6.13;3.30;;;13.20;99.90;;;;;;5095063;28;20494;-63
2023/05/17 08:24:44;;;;;;;9.10;4.43;;;13.00;99.90;;;;;;5100107;28;20460;-63
2023/05/17 08:27:11;;;;;;;9.80;4.00;;;12.60;99.90;;;;;;5100385;28;20514;-62
2023/05/17 08:29:38;;;;;;;9.20;3.73;;;13.00;99.90;;;;;;5100629;28;20466;-62
2023/05/17 08:32:06;;;;;;;10.00;4.27;;;13.60;99.90;;;;;;5100946;28;20456;-62
2023/05/17 08:34:33;;;;;;;7.17;4.03;;;14.80;99.90;;;;;;5099766;28;20888;-62
2023/05/17 08:37:02;;;;;;;6.20;3.60;;;14.50;99.90;;;;;;5100724;28;20467;-62
2023/05/17 08:39:30;;;;;;;4.47;3.00;;;14.40;99.90;;;;;;5098534;28;20475;-62
2023/05/17 08:41:58;;;;;;;8.90;3.77;;;14.90;99.90;;;;;;5096456;28;20571;-62
2023/05/17 08:44:27;;;;;;;5.60;4.10;;;15.10;99.90;;;;;;5098914;28;20464;-62
2023/05/17 08:46:58;;;;;;;9.20;4.63;;;16.00;99.90;;;;;;5098683;28;20475;-61
2023/05/17 08:49:27;;;;;;;5.93;3.90;;;17.00;99.90;;;;;;5091293;28;20469;-62
2023/05/17 08:51:55;;;;;;;10.33;4.90;;;15.90;99.90;;;;;;5078341;28;20850;-62
2023/05/17 08:54:24;;;;;;;8.63;4.73;;;15.40;99.90;;;;;;5078461;28;20469;-62
2023/05/17 08:56:54;;;;;;;7.23;4.20;;;13.80;99.90;;;;;;5078284;28;20487;-61
2023/05/17 08:59:22;;;;;;;7.37;4.67;;;12.70;99.90;;;;;;5078054;28;20918;-61
2023/05/17 09:01:53;;;;;;;10.67;4.70;;;12.40;99.90;;;;;;5078126;28;20622;-62
2023/05/17 09:04:21;;;;;;;7.63;5.30;;;12.10;99.90;;;;;;5077598;28;20461;-61
2023/05/17 09:06:50;;;;;;;6.67;4.40;;;12.00;99.90;;;;;;5077875;28;20488;-62
2023/05/17 09:09:18;;;;;;;8.10;4.60;;;12.30;99.90;;;;;;5078024;28;20472;-62
2023/05/17 09:11:47;;;;;;;9.93;4.07;;;12.40;99.90;;;;;;5078105;28;20946;-61
2023/05/17 09:14:16;;;;;;;5.30;4.07;;;12.90;99.90;;;;;;5077889;28;20839;-61
2023/05/17 09:16:43;;;;;;;6.27;4.10;;;13.70;99.90;;;;;;5085284;28;20839;-61
2023/05/17 09:19:17;;;;;;;7.70;4.20;;;13.90;99.90;;;;;;5088564;28;20770;-62
2023/05/17 09:21:46;;;;;;;6.83;4.30;;;15.10;99.90;;;;;;5098640;28;20501;-62
2023/05/17 09:24:14;;;;;;;9.33;3.00;;;15.00;99.90;;;;;;5098762;28;20731;-62
2023/05/17 09:26:42;;;;;;;6.87;3.47;;;16.40;99.90;;;;;;5097822;28;20563;-61
2023/05/17 09:29:11;;;;;;;9.93;3.70;;;16.70;99.90;;;;;;5098709;28;20543;-60
2023/05/17 09:31:39;;;;;;;5.90;3.03;;;17.40;99.90;;;;;;5097832;28;20457;-60
2023/05/17 09:34:07;;;;;;;5.47;2.90;;;16.60;99.90;;;;;;5098770;28;20873;-61
2023/05/17 09:36:36;;;;;;;8.90;3.53;;;15.80;99.90;;;;;;5099063;28;20496;-62
2023/05/17 09:39:06;;;;;;;11.53;5.60;;;16.40;99.90;;;;;;5098854;28;20562;-61
2023/05/17 09:41:41;;;;;;;5.60;3.40;;;15.80;99.90;;;;;;5097486;28;20809;-62
2023/05/17 09:44:10;;;;;;;5.97;3.27;;;15.70;99.90;;;;;;5097116;28;20493;-62
2023/05/17 09:46:41;;;;;;;8.17;4.40;;;15.80;99.90;;;;;;5096312;28;20533;-59
2023/05/17 09:49:09;;;;;;;9.50;3.83;;;15.90;99.90;;;;;;5096214;28;20456;-60
2023/05/17 09:51:37;;;;;;;7.67;3.70;;;16.50;99.90;;;;;;5095919;28;20509;-62
2023/05/17 09:54:06;;;;;;;7.97;4.10;;;15.70;99.90;;;;;;5095951;28;21030;-61
2023/05/17 09:56:33;;;;;;;13.37;5.30;;;14.10;99.90;;;;;;5097256;28;20453;-59
2023/05/17 09:59:02;;;;;;;5.93;2.93;;;13.90;99.90;;;;;;5096474;28;20775;-59
2023/05/17 10:01:30;;;;;;;7.07;3.80;;;14.00;99.90;;;;;;5094740;28;20467;-58
2023/05/17 10:04:02;;;;;;;12.30;4.50;;;13.70;99.90;;;;;;5095827;28;20951;-60
2023/05/17 10:06:30;;;;;;;8.27;3.87;;;13.60;99.90;;;;;;5095192;28;20905;-59
2023/05/17 10:08:59;;;;;;;9.10;4.70;;;13.70;99.90;;;;;;5096026;28;20467;-60
2023/05/17 10:11:32;;;;;;;4.90;3.20;;;14.50;99.90;;;;;;5097551;28;20889;-61
2023/05/17 10:14:05;;;;;;;5.90;4.07;;;15.10;99.90;;;;;;5097552;28;20916;-59
2023/05/17 10:16:34;;;;;;;9.60;4.77;;;16.50;99.90;;;;;;5098101;28;20551;-61
2023/05/17 10:19:03;;;;;;;8.20;3.60;;;16.70;99.90;;;;;;5098754;28;20811;-61
2023/05/17 10:21:31;;;;;;;14.43;4.50;;;16.80;99.90;;;;;;5088551;28;20543;-61
2023/05/17 10:24:00;;;;;;;7.50;3.60;;;16.60;99.90;;;;;;5078607;28;20892;-61
2023/05/17 10:26:28;;;;;;;14.43;4.87;;;15.60;99.90;;;;;;5083804;28;20457;-57
2023/05/17 10:29:00;;;;;;;10.07;4.33;;;14.00;99.90;;;;;;5094045;28;20460;-60
2023/05/17 10:31:31;;;;;;;6.27;3.80;;;13.90;99.90;;;;;;5096438;28;20544;-58
2023/05/17 10:34:00;;;;;;;7.50;3.87;;;13.90;99.90;;;;;;5095420;28;20765;-61
2023/05/17 10:36:29;;;;;;;11.07;4.43;;;14.90;99.90;;;;;;5097457;28;20457;-60
2023/05/17 10:38:58;;;;;;;9.20;3.47;;;15.20;99.90;;;;;;5097403;28;20973;-60
2023/05/17 10:41:30;;;;;;;5.83;3.10;;;15.60;99.90;;;;;;5096363;28;20753;-61
2023/05/17 10:43:58;;;;;;;18.50;6.03;;;15.90;99.90;;;;;;5096100;28;20500;-60
2023/05/17 10:46:25;;;;;;;16.00;8.73;;;15.20;99.90;;;;;;5092761;28;20464;-59
2023/05/17 10:48:53;;;;;;;9.27;4.67;;;14.30;99.90;;;;;;5094931;28;20452;-60
2023/05/17 10:51:26;;;;;;;6.53;3.70;;;14.90;99.90;;;;;;5094826;28;20431;-61
2023/05/17 10:54:11;;;;;;;8.17;3.40;;;15.50;99.90;;;;;;5095495;28;20543;-61
2023/05/17 10:56:41;;;;;;;5.73;3.57;;;17.10;99.90;;;;;;5092757;28;20468;-61
2023/05/17 10:59:20;;;;;;;5.70;3.87;;;17.10;99.90;;;;;;5075263;28;20516;-59
2023/05/17 11:02:00;;;;;;;8.37;3.30;;;16.80;99.90;;;;;;5091609;28;20453;-61
2023/05/17 11:04:33;;;;;;;7.50;3.47;;;15.80;99.90;;;;;;5092504;28;20807;-61
2023/05/17 11:07:23;;;;;;;11.13;5.10;;;15.50;99.90;;;;;;5093256;28;20531;-62
2023/05/17 11:09:55;;;;;;;4.00;3.60;;;16.40;99.90;;;;;;5095108;28;20901;-61
2023/05/17 11:12:32;;;;;;;6.00;3.50;;;17.20;99.90;;;;;;5094375;28;20452;-62
2023/05/17 11:15:00;;;;;;;8.70;4.60;;;18.30;99.90;;;;;;5094353;28;20818;-61
2023/05/17 11:17:34;;;;;;;6.77;3.93;;;17.30;99.90;;;;;;5094184;28;20509;-61
2023/05/17 11:20:10;;;;;;;7.57;3.57;;;17.10;99.90;;;;;;5095965;28;20558;-61
2023/05/17 11:22:39;;;;;;;6.23;4.00;;;15.50;99.90;;;;;;5095824;28;20484;-62
2023/05/17 11:25:10;;;;;;;8.10;3.90;;;15.50;99.90;;;;;;5096675;28;20465;-61
2023/05/17 11:27:39;;;;;;;9.53;4.20;;;16.50;99.90;;;;;;5097214;28;20439;-61
2023/05/17 11:30:23;;;;;;;11.53;4.47;;;17.00;99.90;;;;;;5097178;28;20456;-59
2023/05/17 11:32:52;;;;;;;8.40;3.70;;;17.60;99.90;;;;;;5096882;28;20521;-61
2023/05/17 11:35:23;;;;;;;7.17;3.60;;;18.90;99.90;;;;;;5097193;28;20464;-61
2023/05/17 11:37:52;;;;;;;6.00;3.90;;;18.10;99.90;;;;;;5097222;28;20870;-61
2023/05/17 11:40:27;;;;;;;5.90;3.97;;;16.90;99.90;;;;;;5096584;28;20800;-60
2023/05/17 11:43:11;;;;;;;9.47;4.30;;;15.60;99.90;;;;;;5096893;28;20577;-61
2023/05/17 11:45:47;;;;;;;7.93;4.23;;;14.40;99.90;;;;;;5095904;28;20467;-61
2023/05/17 11:48:15;;;;;;;7.90;4.43;;;14.60;99.90;;;;;;5097263;28;20495;-61
2023/05/17 11:50:43;;;;;;;7.37;4.10;;;15.70;99.90;;;;;;5094138;28;20477;-61
2023/05/17 11:53:11;;;;;;;8.80;3.43;;;15.40;99.90;;;;;;5090236;28;20465;-61
2023/05/17 11:55:41;;;;;;;10.90;4.23;;;15.20;99.90;;;;;;5081012;28;20477;-59
2023/05/17 11:58:09;;;;;;;17.30;8.23;;;14.60;99.90;;;;;;5076862;28;20471;-61
2023/05/17 12:00:37;;;;;;;6.47;4.57;;;14.40;99.90;;;;;;5088990;28;20487;-61
2023/05/17 12:03:21;;;;;;;8.83;4.80;;;15.50;99.90;;;;;;5096171;28;20507;-59
2023/05/17 12:05:50;;;;;;;7.97;3.50;;;16.30;99.90;;;;;;5078463;28;20461;-61
2023/05/17 12:08:18;;;;;;;4.20;3.60;;;17.40;99.90;;;;;;5094579;28;20922;-61
2023/05/17 12:10:48;;;;;;;10.87;4.60;;;17.00;99.90;;;;;;5095967;28;20525;-61
2023/05/17 12:13:15;;;;;;;5.37;3.70;;;16.50;99.90;;;;;;5083507;28;20461;-61
2023/05/17 12:15:46;;;;;;;9.13;4.17;;;16.70;99.90;;;;;;5083762;28;20448;-61
2023/05/17 12:18:13;;;;;;;6.13;4.07;;;15.40;99.90;;;;;;5095098;28;20467;-61
2023/05/17 12:20:54;;;;;;;3.80;3.33;;;16.20;99.90;;;;;;5088289;28;20492;-59
2023/05/17 12:23:28;;;;;;;7.57;3.30;;;17.30;99.90;;;;;;5089264;28;20821;-62
2023/05/17 12:26:05;;;;;;;5.77;3.30;;;18.30;99.90;;;;;;5095031;28;20748;-62
2023/05/17 12:28:32;;;;;;;6.83;4.07;;;19.40;99.90;;;;;;5090282;28;20503;-62
2023/05/17 12:31:01;;;;;;;5.80;4.30;;;18.30;99.90;;;;;;5074259;28;20461;-62
2023/05/17 12:33:35;;;;;;;8.57;4.17;;;16.90;99.90;;;;;;5074553;28;21021;-62
2023/05/17 12:36:03;;;;;;;8.83;3.90;;;17.30;99.90;;;;;;5074153;28;20457;-62
2023/05/17 12:38:32;;;;;;;10.07;4.63;;;18.00;99.90;;;;;;5083536;28;20464;-61
2023/05/17 12:41:01;;;;;;;7.20;4.30;;;16.60;99.90;;;;;;5092700;28;20513;-62
2023/05/17 12:43:30;;;;;;;5.17;3.87;;;15.80;99.90;;;;;;5088112;28;20496;-62
2023/05/17 12:46:03;;;;;;;6.40;4.27;;;16.40;99.90;;;;;;5093129;28;20496;-59
2023/05/17 12:48:31;;;;;;;6.33;4.00;;;18.10;99.90;;;;;;5092651;28;20538;-62
2023/05/17 12:51:05;;;;;;;7.20;4.03;;;18.50;99.90;;;;;;5089034;28;20908;-62
2023/05/17 12:53:36;;;;;;;4.90;3.63;;;17.90;99.90;;;;;;5097132;28;20490;-62